createdAt,value
2023-05-12T00:00:29.326Z,101759.80
2023-05-12T00:03:11.845Z,101758.21
2023-05-12T00:05:39.976Z,101757.46
2023-05-12T00:08:07.992Z,101758.09
2023-05-12T00:10:35.890Z,101756.06
2023-05-12T00:13:03.836Z,101759.52
2023-05-12T00:15:32.501Z,101756.14
2023-05-12T00:18:00.891Z,101756.60
2023-05-12T00:20:28.868Z,101758.02
2023-05-12T00:22:56.910Z,101757.77
2023-05-12T00:25:24.834Z,101754.83
2023-05-12T00:27:52.784Z,101758.09
2023-05-12T00:30:21.551Z,101753.05
2023-05-12T00:32:49.842Z,101754.77
2023-05-12T00:35:17.799Z,101756.48
2023-05-12T00:37:45.779Z,101757.61
2023-05-12T00:40:14.449Z,101760.66
2023-05-12T00:42:42.380Z,101762.37
2023-05-12T00:45:11.094Z,101768.42
2023-05-12T00:47:39.705Z,101767.53
2023-05-12T00:50:08.587Z,101767.54
2023-05-12T00:52:36.826Z,101767.91
2023-05-12T00:55:05.453Z,101767.77
2023-05-12T00:57:33.562Z,101771.73
2023-05-12T01:00:01.839Z,101768.24
2023-05-12T01:02:30.603Z,101769.37
2023-05-12T01:04:59.117Z,101768.99
2023-05-12T01:07:27.068Z,101772.23
2023-05-12T01:09:56.554Z,101773.35
2023-05-12T01:12:25.879Z,101773.14
2023-05-12T01:14:55.138Z,101774.86
2023-05-12T01:17:33.454Z,101773.27
2023-05-12T01:20:03.007Z,101775.69
2023-05-12T01:22:31.699Z,101778.35
2023-05-12T01:25:04.350Z,101781.23
2023-05-12T01:27:32.805Z,101782.36
2023-05-12T01:30:01.722Z,101783.01
2023-05-12T01:32:32.118Z,101783.09
2023-05-12T01:35:01.138Z,101782.23
2023-05-12T01:37:30.820Z,101781.98
2023-05-12T01:39:59.739Z,101786.30
2023-05-12T01:42:28.111Z,101783.18
2023-05-12T01:44:56.171Z,101787.20
2023-05-12T01:47:24.611Z,101789.05
2023-05-12T01:50:12.769Z,101791.25
2023-05-12T01:52:41.117Z,101793.59
2023-05-12T01:55:13.888Z,101794.42
2023-05-12T01:57:53.953Z,101796.02
2023-05-12T02:00:22.688Z,101798.99
2023-05-12T02:02:51.371Z,101802.29
2023-05-12T02:05:19.384Z,101800.98
2023-05-12T02:07:49.488Z,101799.52
2023-05-12T02:10:18.402Z,101802.82
2023-05-12T02:12:46.998Z,101802.33
2023-05-12T02:15:15.268Z,101805.05
2023-05-12T02:17:45.802Z,101807.88
2023-05-12T02:20:14.075Z,101805.48
2023-05-12T02:22:44.198Z,101805.36
2023-05-12T02:25:12.262Z,101810.12
2023-05-12T02:27:40.266Z,101810.45
2023-05-12T02:30:09.234Z,101808.11
2023-05-12T02:32:37.601Z,101810.42
2023-05-12T02:35:07.641Z,101810.92
2023-05-12T02:37:36.327Z,101813.84
2023-05-12T02:40:04.858Z,101813.40
2023-05-12T02:42:35.722Z,101815.70
2023-05-12T02:45:04.221Z,101814.36
2023-05-12T02:47:33.283Z,101816.45
2023-05-12T02:50:01.626Z,101815.41
2023-05-12T02:52:29.617Z,101813.64
2023-05-12T02:54:57.619Z,101816.31
2023-05-12T02:57:27.642Z,101815.71
2023-05-12T02:59:56.042Z,101818.52
2023-05-12T03:02:24.161Z,101818.61
2023-05-12T03:04:52.243Z,101820.46
2023-05-12T03:07:20.319Z,101820.89
2023-05-12T03:09:48.433Z,101819.80
2023-05-12T03:12:16.661Z,101819.61
2023-05-12T03:14:44.967Z,101819.44
2023-05-12T03:17:13.007Z,101818.23
2023-05-12T03:19:41.848Z,101822.14
2023-05-12T03:22:10.048Z,101822.54
2023-05-12T03:24:37.988Z,101817.14
2023-05-12T03:27:06.120Z,101819.73
2023-05-12T03:29:34.135Z,101821.41
2023-05-12T03:32:02.165Z,101821.17
2023-05-12T03:34:30.431Z,101823.39
2023-05-12T03:36:59.371Z,101825.47
2023-05-12T03:39:27.329Z,101830.36
2023-05-12T03:41:56.218Z,101831.23
2023-05-12T03:44:24.173Z,101833.38
2023-05-12T03:46:52.345Z,101839.05
2023-05-12T03:49:21.817Z,101839.23
2023-05-12T03:51:50.149Z,101840.70
2023-05-12T03:54:20.054Z,101843.41
2023-05-12T03:56:47.950Z,101847.83
2023-05-12T03:59:16.335Z,101853.42
2023-05-12T04:01:44.452Z,101853.83
2023-05-12T04:04:12.634Z,101856.53
2023-05-12T04:06:40.741Z,101857.70
2023-05-12T04:09:08.819Z,101857.96
2023-05-12T04:11:38.103Z,101862.66
2023-05-12T04:14:06.082Z,101857.27
2023-05-12T04:16:35.643Z,101855.66
2023-05-12T04:19:03.834Z,101860.65
2023-05-12T04:21:33.578Z,101860.84
2023-05-12T04:24:01.567Z,101860.83
2023-05-12T04:26:32.474Z,101867.58
2023-05-12T04:29:00.678Z,101868.09
2023-05-12T04:31:28.724Z,101866.71
2023-05-12T04:33:56.848Z,101864.45
2023-05-12T04:36:26.102Z,101865.95
2023-05-12T04:38:55.983Z,101868.73
2023-05-12T04:41:23.958Z,101870.58
2023-05-12T04:46:23.379Z,101872.58
2023-05-12T04:48:51.478Z,101874.14
2023-05-12T04:51:19.391Z,101874.95
2023-05-12T04:53:47.428Z,101868.88
2023-05-12T04:56:15.549Z,101864.66
2023-05-12T04:58:43.776Z,101871.48
2023-05-12T05:01:12.580Z,101871.82
2023-05-12T05:03:41.035Z,101869.02
2023-05-12T05:06:09.312Z,101868.23
2023-05-12T05:08:37.363Z,101867.83
2023-05-12T05:11:06.419Z,101872.63
2023-05-12T05:13:34.380Z,101872.08
2023-05-12T05:16:02.630Z,101875.81
2023-05-12T05:18:31.582Z,101873.26
2023-05-12T05:20:59.675Z,101874.06
2023-05-12T05:23:28.341Z,101873.73
2023-05-12T05:25:56.836Z,101873.21
2023-05-12T05:28:24.967Z,101872.63
2023-05-12T05:30:52.932Z,101877.29
2023-05-12T05:33:21.428Z,101880.80
2023-05-12T05:35:49.517Z,101880.67
2023-05-12T05:38:17.641Z,101878.82
2023-05-12T05:40:52.982Z,101883.33
2023-05-12T05:43:25.864Z,101883.09
2023-05-12T05:45:56.220Z,101887.02
2023-05-12T05:48:25.131Z,101890.24
2023-05-12T05:50:53.585Z,101887.97
2023-05-12T05:53:23.064Z,101886.63
2023-05-12T05:55:51.540Z,101886.23
2023-05-12T05:58:19.536Z,101888.19
2023-05-12T06:00:48.308Z,101887.52
2023-05-12T06:03:16.906Z,101889.23
2023-05-12T06:05:45.848Z,101891.46
2023-05-12T06:08:13.882Z,101894.08
2023-05-12T06:10:42.280Z,101895.09
2023-05-12T06:13:10.398Z,101894.00
2023-05-12T06:15:38.925Z,101894.55
2023-05-12T06:18:07.025Z,101898.09
2023-05-12T06:20:35.109Z,101896.73
2023-05-12T06:23:03.201Z,101899.57
2023-05-12T06:25:33.344Z,101905.88
2023-05-12T06:28:02.224Z,101905.98
2023-05-12T06:30:30.166Z,101906.20
2023-05-12T06:32:58.179Z,101908.14
2023-05-12T06:35:26.365Z,101912.02
2023-05-12T06:37:54.331Z,101908.77
2023-05-12T06:40:22.429Z,101914.05
2023-05-12T06:42:50.485Z,101915.56
2023-05-12T06:45:21.719Z,101913.44
2023-05-12T06:47:50.471Z,101911.66
2023-05-12T06:50:19.676Z,101912.81
2023-05-12T06:52:51.273Z,101914.65
2023-05-12T06:55:21.172Z,101911.21
2023-05-12T06:57:51.830Z,101915.42
2023-05-12T07:00:20.170Z,101912.23
2023-05-12T07:02:48.133Z,101912.88
2023-05-12T07:05:16.218Z,101915.24
2023-05-12T07:07:44.997Z,101917.40
2023-05-12T07:10:13.034Z,101919.33
2023-05-12T07:12:40.960Z,101918.23
2023-05-12T07:15:09.825Z,101917.89
2023-05-12T07:17:37.891Z,101917.39
2023-05-12T07:20:07.264Z,101916.74
2023-05-12T07:22:37.980Z,101917.20
2023-05-12T07:25:08.132Z,101913.20
2023-05-12T07:27:36.579Z,101917.58
2023-05-12T07:30:06.656Z,101915.97
2023-05-12T07:32:34.861Z,101918.77
2023-05-12T07:35:03.900Z,101920.49
2023-05-12T07:37:32.351Z,101919.38
2023-05-12T07:40:00.299Z,101922.14
2023-05-12T07:42:28.262Z,101920.95
2023-05-12T07:44:56.331Z,101921.89
2023-05-12T07:47:24.639Z,101921.41
2023-05-12T07:49:52.684Z,101918.08
2023-05-12T07:52:21.165Z,101919.11
2023-05-12T07:54:49.211Z,101918.77
2023-05-12T07:57:17.158Z,101919.05
2023-05-12T07:59:45.427Z,101915.98
2023-05-12T08:02:13.460Z,101916.59
2023-05-12T08:04:43.166Z,101911.73
2023-05-12T08:07:12.567Z,101908.77
2023-05-12T08:09:40.584Z,101909.60
2023-05-12T08:12:08.773Z,101914.80
2023-05-12T08:14:37.295Z,101908.08
2023-05-12T08:17:05.295Z,101903.84
2023-05-12T08:19:33.481Z,101908.36
2023-05-12T08:22:02.943Z,101903.98
2023-05-12T08:24:30.885Z,101903.36
2023-05-12T08:26:58.903Z,101900.38
2023-05-12T08:29:29.112Z,101899.41
2023-05-12T08:31:58.191Z,101905.98
2023-05-12T08:34:26.179Z,101899.52
2023-05-12T08:36:54.246Z,101901.55
2023-05-12T08:39:22.366Z,101903.40
2023-05-12T08:41:56.200Z,101899.10
2023-05-12T08:44:24.210Z,101898.85
2023-05-12T08:46:52.870Z,101900.16
2023-05-12T08:49:21.131Z,101898.23
2023-05-12T08:51:57.213Z,101898.06
2023-05-12T08:54:27.595Z,101898.15
2023-05-12T08:59:27.557Z,101896.98
2023-05-12T09:01:56.118Z,101900.09
2023-05-12T09:04:24.265Z,101896.73
2023-05-12T09:06:54.946Z,101897.12
2023-05-12T09:23:18.148Z,101886.04
2023-05-12T09:25:47.983Z,101887.30
2023-05-12T09:28:16.249Z,101884.77
2023-05-12T09:30:44.180Z,101884.82
2023-05-12T09:33:13.168Z,101874.01
2023-05-12T09:35:45.861Z,101876.79
2023-05-12T09:38:14.388Z,101882.16
2023-05-12T09:40:43.557Z,101886.09
2023-05-12T09:43:15.123Z,101884.89
2023-05-12T09:45:44.422Z,101879.67
2023-05-12T09:48:14.041Z,101871.09
2023-05-12T09:50:51.313Z,101873.34
2023-05-12T09:53:20.534Z,101882.17
2023-05-12T09:55:48.829Z,101882.77
2023-05-12T09:58:18.602Z,101878.79
2023-05-12T10:03:18.685Z,101879.14
2023-05-12T10:05:50.078Z,101882.95
2023-05-12T10:08:22.345Z,101877.88
2023-05-12T10:10:52.365Z,101866.94
2023-05-12T10:13:20.344Z,101877.06
2023-05-12T10:15:48.787Z,101875.34
2023-05-12T10:18:17.561Z,101864.70
2023-05-12T10:20:46.291Z,101868.71
2023-05-12T10:23:14.883Z,101865.67
2023-05-12T10:25:43.961Z,101868.42
2023-05-12T10:28:12.040Z,101862.48
2023-05-12T10:30:40.410Z,101868.38
2023-05-12T10:33:10.236Z,101872.23
2023-05-12T10:35:39.635Z,101876.90
2023-05-12T10:38:09.037Z,101867.61
2023-05-12T10:40:38.774Z,101863.75
2023-05-12T10:43:06.718Z,101865.46
2023-05-12T10:45:37.672Z,101869.29
2023-05-12T10:48:07.184Z,101869.86
2023-05-12T10:50:35.243Z,101862.61
2023-05-12T10:53:03.301Z,101863.02
2023-05-12T10:55:36.006Z,101861.14
2023-05-12T10:58:11.984Z,101856.57
2023-05-12T11:00:45.810Z,101850.03
2023-05-12T11:03:16.786Z,101848.27
2023-05-12T11:05:46.332Z,101846.88
2023-05-12T11:08:16.639Z,101854.00
2023-05-12T11:10:47.090Z,101845.50
2023-05-12T11:13:15.701Z,101842.75
2023-05-12T11:15:46.802Z,101846.94
2023-05-12T11:18:20.999Z,101849.06
2023-05-12T11:20:50.056Z,101846.54
2023-05-12T11:23:29.186Z,101845.80
2023-05-12T11:25:57.382Z,101855.57
2023-05-12T11:28:25.691Z,101850.34
2023-05-12T11:30:55.308Z,101840.32
2023-05-12T11:33:23.888Z,101849.68
2023-05-12T11:35:51.962Z,101851.84
2023-05-12T11:38:20.039Z,101848.42
2023-05-12T11:40:48.008Z,101848.08
2023-05-12T11:43:19.856Z,101841.42
2023-05-12T11:45:47.939Z,101844.05
2023-05-12T11:48:16.657Z,101845.77
2023-05-12T11:50:48.079Z,101846.93
2023-05-12T11:53:19.225Z,101851.29
2023-05-12T11:55:54.186Z,101839.27
2023-05-12T11:58:30.869Z,101850.46
2023-05-12T12:01:12.423Z,101855.09
2023-05-12T12:03:57.509Z,101851.17
2023-05-12T12:06:25.823Z,101847.45
2023-05-12T12:09:00.082Z,101852.95
2023-05-12T12:11:29.085Z,101854.74
2023-05-12T12:13:57.440Z,101854.52
2023-05-12T12:16:29.902Z,101854.89
2023-05-12T12:18:58.188Z,101848.38
2023-05-12T12:21:26.352Z,101842.45
2023-05-12T12:23:54.356Z,101847.39
2023-05-12T12:26:23.110Z,101843.05
2023-05-12T12:28:51.120Z,101843.85
2023-05-12T12:31:19.144Z,101844.55
2023-05-12T12:33:47.147Z,101845.69
2023-05-12T12:36:15.238Z,101840.80
2023-05-12T12:38:43.320Z,101843.77
2023-05-12T12:41:11.639Z,101834.91
2023-05-12T12:43:39.806Z,101831.09
2023-05-12T12:46:07.756Z,101822.42
2023-05-12T12:48:35.751Z,101830.81
2023-05-12T12:51:04.312Z,101828.60
2023-05-12T12:53:32.349Z,101830.82
2023-05-12T12:56:00.350Z,101832.12
2023-05-12T12:58:28.433Z,101829.17
2023-05-12T13:00:56.909Z,101817.98
2023-05-12T13:03:25.094Z,101814.73
2023-05-12T13:05:54.206Z,101812.92
2023-05-12T13:08:22.468Z,101814.17
2023-05-12T13:10:50.555Z,101813.76
2023-05-12T13:13:18.570Z,101821.41
2023-05-12T13:15:46.495Z,101821.36
2023-05-12T13:18:14.462Z,101813.67
2023-05-12T13:20:42.468Z,101816.00
2023-05-12T13:23:10.454Z,101815.16
2023-05-12T13:25:38.414Z,101810.33
2023-05-12T13:28:06.438Z,101810.58
2023-05-12T13:30:35.298Z,101809.93
2023-05-12T13:33:05.885Z,101804.89
2023-05-12T13:35:34.517Z,101809.47
2023-05-12T13:38:02.521Z,101800.88
2023-05-12T13:40:30.585Z,101808.40
2023-05-12T13:42:58.677Z,101806.70
2023-05-12T13:45:27.491Z,101807.60
2023-05-12T13:47:55.520Z,101810.14
2023-05-12T13:50:23.537Z,101804.75
2023-05-12T13:52:51.418Z,101801.73
2023-05-12T13:55:21.745Z,101804.27
2023-05-12T13:57:50.159Z,101797.27
2023-05-12T14:00:18.469Z,101796.58
2023-05-12T14:02:46.472Z,101794.08
2023-05-12T14:05:14.883Z,101797.64
2023-05-12T14:07:42.859Z,101797.38
2023-05-12T14:10:11.122Z,101789.48
2023-05-12T14:12:39.156Z,101788.51
2023-05-12T14:15:23.622Z,101794.59
2023-05-12T14:17:56.055Z,101792.84
2023-05-12T14:20:24.093Z,101800.95
2023-05-12T14:22:52.519Z,101795.27
2023-05-12T14:25:20.738Z,101794.48
2023-05-12T14:27:48.914Z,101794.47
2023-05-12T14:30:17.011Z,101794.85
2023-05-12T14:32:45.167Z,101794.52
2023-05-12T14:35:13.475Z,101792.96
2023-05-12T14:37:41.498Z,101796.10
2023-05-12T14:40:10.161Z,101799.70
2023-05-12T14:42:38.328Z,101799.57
2023-05-12T14:45:06.846Z,101796.35
2023-05-12T14:47:35.063Z,101799.29
2023-05-12T14:50:03.170Z,101795.27
2023-05-12T14:52:34.054Z,101787.42
2023-05-12T14:55:04.874Z,101794.88
2023-05-12T14:57:35.888Z,101789.16
2023-05-12T15:00:08.160Z,101790.03
2023-05-12T15:02:36.410Z,101798.68
2023-05-12T15:05:05.693Z,101793.64
2023-05-12T15:07:33.859Z,101794.05
2023-05-12T15:10:01.849Z,101792.77
2023-05-12T15:12:29.975Z,101784.34
2023-05-12T15:15:01.296Z,101795.00
2023-05-12T15:17:30.831Z,101796.53
2023-05-12T15:19:59.090Z,101795.21
2023-05-12T15:22:31.532Z,101788.59
2023-05-12T15:24:59.852Z,101785.20
2023-05-12T15:27:27.830Z,101782.14
2023-05-12T15:29:55.907Z,101790.52
2023-05-12T15:32:23.963Z,101785.34
2023-05-12T15:34:52.496Z,101787.90
2023-05-12T15:37:20.771Z,101788.63
2023-05-12T15:39:48.841Z,101783.16
2023-05-12T15:42:22.465Z,101789.08
2023-05-12T15:44:54.687Z,101787.35
2023-05-12T15:47:23.010Z,101789.83
2023-05-12T15:49:51.348Z,101785.13
2023-05-12T15:52:19.512Z,101789.05
2023-05-12T15:54:47.725Z,101789.45
2023-05-12T15:57:15.818Z,101786.73
2023-05-12T15:59:43.918Z,101782.73
2023-05-12T16:02:12.157Z,101789.17
2023-05-12T16:04:40.439Z,101786.38
2023-05-12T16:07:08.642Z,101788.17
2023-05-12T16:09:36.748Z,101784.90
2023-05-12T16:12:06.280Z,101789.17
2023-05-12T16:14:35.483Z,101783.98
2023-05-12T16:17:03.946Z,101784.30
2023-05-12T16:19:32.202Z,101786.25
2023-05-12T16:22:00.555Z,101784.92
2023-05-12T16:24:29.004Z,101788.73
2023-05-12T16:26:57.531Z,101791.02
2023-05-12T16:29:25.960Z,101793.33
2023-05-12T16:31:53.952Z,101789.83
2023-05-12T16:34:22.013Z,101790.33
2023-05-12T16:36:50.022Z,101787.17
2023-05-12T16:39:20.670Z,101792.00
2023-05-12T16:41:49.001Z,101791.83
2023-05-12T16:44:16.965Z,101790.23
2023-05-12T16:46:45.059Z,101788.00
2023-05-12T16:49:13.399Z,101790.83
2023-05-12T16:51:42.094Z,101788.02
2023-05-12T16:54:10.275Z,101785.57
2023-05-12T16:56:38.351Z,101789.25
2023-05-12T16:59:06.573Z,101787.44
2023-05-12T17:01:36.177Z,101788.84
2023-05-12T17:04:04.570Z,101789.71
2023-05-12T17:06:32.758Z,101799.03
2023-05-12T17:09:01.663Z,101792.95
2023-05-12T17:11:29.740Z,101792.13
2023-05-12T17:13:57.810Z,101790.66
2023-05-12T17:16:25.856Z,101795.96
2023-05-12T17:21:25.042Z,101795.20
2023-05-12T17:23:54.045Z,101801.45
2023-05-12T17:26:22.748Z,101800.49
2023-05-12T17:28:50.863Z,101807.80
2023-05-12T17:31:21.154Z,101806.25
2023-05-12T17:33:49.485Z,101812.46
2023-05-12T17:36:18.961Z,101815.05
2023-05-12T17:38:48.336Z,101814.14
2023-05-12T17:41:16.586Z,101818.71
2023-05-12T17:43:44.608Z,101818.66
2023-05-12T17:46:12.741Z,101823.41
2023-05-12T17:48:42.074Z,101826.15
2023-05-12T17:51:10.204Z,101828.52
2023-05-12T17:53:38.195Z,101827.73
2023-05-12T17:56:06.285Z,101828.80
2023-05-12T17:58:34.253Z,101829.73
2023-05-12T18:01:02.226Z,101831.08
2023-05-12T18:03:30.439Z,101836.39
2023-05-12T18:05:58.437Z,101837.52
2023-05-12T18:08:27.352Z,101838.60
2023-05-12T18:10:55.699Z,101838.02
2023-05-12T18:13:23.702Z,101841.29
2023-05-12T18:15:51.685Z,101841.09
2023-05-12T18:18:19.681Z,101844.09
2023-05-12T18:20:48.100Z,101845.91
2023-05-12T18:23:16.824Z,101850.44
2023-05-12T18:25:44.822Z,101849.88
2023-05-12T18:28:12.791Z,101853.06
2023-05-12T18:30:41.710Z,101856.66
2023-05-12T18:33:10.211Z,101864.39
2023-05-12T18:35:38.309Z,101863.57
2023-05-12T18:38:07.303Z,101870.37
2023-05-12T18:40:35.314Z,101874.22
2023-05-12T18:43:03.279Z,101877.27
2023-05-12T18:45:31.247Z,101878.83
2023-05-12T18:47:59.248Z,101886.39
2023-05-12T18:50:27.302Z,101892.20
2023-05-12T18:52:55.348Z,101894.07
2023-05-12T18:55:23.418Z,101892.53
2023-05-12T18:57:51.612Z,101895.42
2023-05-12T19:00:23.628Z,101899.70
2023-05-12T19:02:52.729Z,101900.04
2023-05-12T19:05:21.390Z,101906.95
2023-05-12T19:07:49.602Z,101906.91
2023-05-12T19:10:17.606Z,101906.08
2023-05-12T19:12:45.664Z,101906.42
2023-05-12T19:15:14.823Z,101903.70
2023-05-12T19:17:42.954Z,101905.77
2023-05-12T19:20:11.221Z,101906.23
2023-05-12T19:22:39.186Z,101905.50
2023-05-12T19:25:07.294Z,101909.89
2023-05-12T19:27:35.281Z,101913.98
2023-05-12T19:30:05.371Z,101915.27
2023-05-12T19:32:33.817Z,101918.52
2023-05-12T19:35:05.012Z,101918.39
2023-05-12T19:37:36.351Z,101917.73
2023-05-12T19:40:04.744Z,101921.46
2023-05-12T19:42:32.904Z,101925.58
2023-05-12T19:45:01.226Z,101929.83
2023-05-12T19:47:30.384Z,101931.06
2023-05-12T19:49:58.389Z,101932.89
2023-05-12T19:52:26.610Z,101931.85
2023-05-12T19:54:54.795Z,101931.90
2023-05-12T19:57:23.252Z,101933.75
2023-05-12T19:59:51.237Z,101932.16
2023-05-12T20:02:19.192Z,101936.90
2023-05-12T20:04:47.196Z,101940.14
2023-05-12T20:07:15.145Z,101937.14
2023-05-12T20:09:43.231Z,101936.46
2023-05-12T20:12:11.407Z,101937.36
2023-05-12T20:14:39.361Z,101944.08
2023-05-12T20:17:08.192Z,101943.38
2023-05-12T20:19:36.170Z,101941.89
2023-05-12T20:22:04.166Z,101942.88
2023-05-12T20:24:32.210Z,101947.63
2023-05-12T20:27:00.300Z,101943.73
2023-05-12T20:29:30.220Z,101945.11
2023-05-12T20:31:58.512Z,101946.34
2023-05-12T20:34:26.492Z,101947.08
2023-05-12T20:36:54.627Z,101945.98
2023-05-12T20:39:22.978Z,101944.87
2023-05-12T20:41:51.010Z,101949.85
2023-05-12T20:44:20.178Z,101950.02
2023-05-12T20:46:48.299Z,101952.52
2023-05-12T20:49:16.507Z,101953.77
2023-05-12T20:51:44.427Z,101952.61
2023-05-12T20:54:12.367Z,101954.43
2023-05-12T20:56:40.391Z,101959.95
2023-05-12T20:59:08.394Z,101960.50
2023-05-12T21:01:36.428Z,101955.59
2023-05-12T21:04:04.598Z,101955.46
2023-05-12T21:06:34.014Z,101958.96
2023-05-12T21:09:02.468Z,101963.40
2023-05-12T21:11:30.792Z,101961.90
2023-05-12T21:13:58.873Z,101969.58
2023-05-12T21:16:26.909Z,101972.89
2023-05-12T21:18:54.979Z,101970.04
2023-05-12T21:21:22.934Z,101971.25
2023-05-12T21:23:51.309Z,101974.19
2023-05-12T21:26:19.207Z,101977.02
2023-05-12T21:28:47.187Z,101973.73
2023-05-12T21:31:15.260Z,101976.30
2023-05-12T21:33:43.182Z,101977.40
2023-05-12T21:36:11.139Z,101979.29
2023-05-12T21:38:39.016Z,101979.97
2023-05-12T21:41:07.059Z,101982.05
2023-05-12T21:43:34.937Z,101981.84
2023-05-12T21:46:04.217Z,101984.73
2023-05-12T21:48:33.455Z,101984.89
2023-05-12T21:51:02.577Z,101983.68
2023-05-12T21:53:30.670Z,101985.96
2023-05-12T21:55:58.708Z,101987.43
2023-05-12T21:58:26.709Z,101986.08
2023-05-12T22:00:54.811Z,101990.32
2023-05-12T22:03:25.209Z,101987.57
2023-05-12T22:05:53.318Z,101989.31
2023-05-12T22:08:21.379Z,101993.02
2023-05-12T22:10:49.382Z,101992.13
2023-05-12T22:13:17.281Z,101991.21
2023-05-12T22:15:45.478Z,101988.66
2023-05-12T22:18:13.463Z,101993.23
2023-05-12T22:20:41.579Z,101990.96
2023-05-12T22:23:09.484Z,101991.86
2023-05-12T22:25:38.290Z,101990.41
2023-05-12T22:28:07.332Z,101991.28
2023-05-12T22:30:35.506Z,101993.09
2023-05-12T22:33:03.521Z,101993.91
2023-05-12T22:35:31.603Z,101992.63
2023-05-12T22:37:59.542Z,101995.06
2023-05-12T22:40:27.939Z,101996.14
2023-05-12T22:42:55.896Z,101997.23
2023-05-12T22:45:25.316Z,101999.36
2023-05-12T22:47:53.290Z,102001.30
2023-05-12T22:50:21.641Z,102002.73
2023-05-12T22:52:49.870Z,102000.91
2023-05-12T22:55:17.772Z,102005.16
2023-05-12T22:57:46.175Z,102004.15
2023-05-12T23:00:14.554Z,102006.80
2023-05-12T23:02:42.562Z,102002.90
2023-05-12T23:05:10.618Z,102002.67
2023-05-12T23:07:38.933Z,102002.46
2023-05-12T23:10:07.393Z,102002.60
2023-05-12T23:12:35.367Z,102004.93
2023-05-12T23:15:04.762Z,102003.71
2023-05-12T23:17:32.762Z,102000.84
2023-05-12T23:20:00.829Z,102006.19
2023-05-12T23:22:28.803Z,102007.19
2023-05-12T23:24:58.410Z,102009.73
2023-05-12T23:27:26.947Z,102008.80
2023-05-12T23:29:54.921Z,102011.13
2023-05-12T23:32:22.930Z,102007.36
2023-05-12T23:34:51.723Z,102007.15
2023-05-12T23:37:19.735Z,102010.86
2023-05-12T23:39:47.704Z,102011.73
2023-05-12T23:42:17.305Z,102011.97
2023-05-12T23:44:45.309Z,102010.03
2023-05-12T23:47:13.216Z,102009.58
2023-05-12T23:49:41.169Z,102004.15
2023-05-12T23:52:09.106Z,102010.55
2023-05-12T23:54:37.019Z,102009.85
2023-05-12T23:57:05.123Z,102010.30
2023-05-12T23:59:33.050Z,102014.45
